Little Rock, AR (72212)

8:29 PM CDT on August 25, 2016 (GMT -0500)
Pleasant Forest (TCA by AVIAS) | | Change Station

Elev 538 ft 34.79 °N, 92.42 °W | Updated 22 seconds ago

Light Rain
Light Rain
76.1 °F
Feels Like 76 °F
N
0.0
Wind Variable Wind from WSW
Gusts 0.0 mph

Today
High -- | Low -- °F
--% Chance of Precip.
Yesterday
High -- | Low -- °F
Precip. -- in
Pressure 30.06 in
Visibility 10.0 miles
Clouds Mostly Cloudy 11000 ft
Overcast 25000 ft
Heat Index 76 °F
Dew Point 75 °F
Humidity 96%
Rainfall 0.05 in
Snow Depth Not available.
6:37 AM 7:44 PM
Last Quarter, 40% visible
METAR KLIT 260053Z 25006KT 10SM -RA BKN110 OVC250 27/23 A3006 RMK AO2 SLP179 P0000 T02670233 $
Pressure 30.06 in
Visibility 10.0 miles
Clouds Mostly Cloudy 11000 ft
Overcast 25000 ft
Heat Index 76 °F
Dew Point 75 °F
Humidity 96%
Rainfall 0.05 in
Snow Depth Not available.
6:37 AM 7:44 PM
Last Quarter, 40% visible
METAR KLIT 260053Z 25006KT 10SM -RA BKN110 OVC250 27/23 A3006 RMK AO2 SLP179 P0000 T02670233 $
A tropical disturbance pushing toward the Bahamas, is expected to develop into a tropical depression or storm, and will likely target Florida and the Gulf Coast this weekend into next week.

Right now, the disturbance remains a broad area of low pressure pushing through the Dominican Republic and Haiti, headed toward the southeast Bahamas. Rainfall totals over 3 inches (with locally higher amounts) are expected in HispaƱiola, particularly over elevated terrain.

10-Day Weather Forecast

Almanac

Astronomy

Aug. 25, 2016 Rise Set
Actual Time
Civil Twilight
Nautical Twilight
Astronomical Twilight
Moon
Length of Visible Light
Length of Day
Tomorrow will be .
, % of the Moon is Illuminated

Today's Extremes

State Highs State Lows

Community

WunderPhotos

Upload Photos

1,935,005 photos uploaded!

WunderBlog® & News

Nearby

Air Quality

  Air Quality AQ Index Pollutant
Not available.

Snow Depth

Station Depth Elevation

Earthquake Activity

City Distance Mag. Time & Date
Minimum magnitude displayed is 2.5.

Coastal Water Temperatures

Place Temperature

Stations

Nearby Weather Stations

Station Location Temp. Windchill Dew Point Humidity Wind Precip. Elev Updated Type
                   

Watches & Warnings

There are currently no watches in effect.